sensor_id;sensor_type;location;lat;lon;timestamp;temperature;humidity
22813;DHT22;11573;51.334;3.244;2023-08-31T00:00:00;11.60;99.90
22813;DHT22;11573;51.334;3.244;2023-08-31T00:02:51;11.60;99.90
22813;DHT22;11573;51.334;3.244;2023-08-31T00:05:20;11.60;99.90
22813;DHT22;11573;51.334;3.244;2023-08-31T00:07:49;11.60;99.90
22813;DHT22;11573;51.334;3.244;2023-08-31T00:10:20;11.60;99.90
22813;DHT22;11573;51.334;3.244;2023-08-31T00:12:47;11.60;99.90
22813;DHT22;11573;51.334;3.244;2023-08-31T00:15:20;11.60;99.90
22813;DHT22;11573;51.334;3.244;2023-08-31T00:17:47;11.50;99.90
22813;DHT22;11573;51.334;3.244;2023-08-31T00:20:15;11.50;99.90
22813;DHT22;11573;51.334;3.244;2023-08-31T00:22:45;11.50;99.90
22813;DHT22;11573;51.334;3.244;2023-08-31T00:25:17;11.60;99.90
22813;DHT22;11573;51.334;3.244;2023-08-31T00:27:44;11.70;99.90
22813;DHT22;11573;51.334;3.244;2023-08-31T00:30:15;11.80;99.90
22813;DHT22;11573;51.334;3.244;2023-08-31T00:32:44;11.90;99.90
22813;DHT22;11573;51.334;3.244;2023-08-31T00:35:16;12.00;99.90
22813;DHT22;11573;51.334;3.244;2023-08-31T00:37:44;12.10;99.90
22813;DHT22;11573;51.334;3.244;2023-08-31T00:40:13;12.20;99.90
22813;DHT22;11573;51.334;3.244;2023-08-31T00:42:41;12.30;99.90
22813;DHT22;11573;51.334;3.244;2023-08-31T00:45:11;12.30;99.90
22813;DHT22;11573;51.334;3.244;2023-08-31T00:47:39;12.40;99.90
22813;DHT22;11573;51.334;3.244;2023-08-31T00:50:09;12.50;99.90
22813;DHT22;11573;51.334;3.244;2023-08-31T00:52:39;12.50;99.90
22813;DHT22;11573;51.334;3.244;2023-08-31T00:55:08;12.50;99.90
22813;DHT22;11573;51.334;3.244;2023-08-31T00:57:40;12.50;99.90
22813;DHT22;11573;51.334;3.244;2023-08-31T01:00:09;12.50;99.90
22813;DHT22;11573;51.334;3.244;2023-08-31T01:12:17;12.50;99.90
22813;DHT22;11573;51.334;3.244;2023-08-31T01:14:53;12.50;99.90
22813;DHT22;11573;51.334;3.244;2023-08-31T01:17:22;12.50;99.90
22813;DHT22;11573;51.334;3.244;2023-08-31T01:19:54;12.50;99.90
22813;DHT22;11573;51.334;3.244;2023-08-31T01:22:48;12.50;99.90
22813;DHT22;11573;51.334;3.244;2023-08-31T01:25:20;12.50;99.90
22813;DHT22;11573;51.334;3.244;2023-08-31T01:27:48;12.50;99.90
22813;DHT22;11573;51.334;3.244;2023-08-31T01:30:16;12.50;99.90
22813;DHT22;11573;51.334;3.244;2023-08-31T01:32:47;12.50;99.90
22813;DHT22;11573;51.334;3.244;2023-08-31T01:35:17;12.50;99.90
22813;DHT22;11573;51.334;3.244;2023-08-31T01:37:53;12.60;99.90
22813;DHT22;11573;51.334;3.244;2023-08-31T01:43:20;12.60;99.90
22813;DHT22;11573;51.334;3.244;2023-08-31T01:46:07;12.50;99.90
22813;DHT22;11573;51.334;3.244;2023-08-31T01:48:40;12.50;99.90
22813;DHT22;11573;51.334;3.244;2023-08-31T01:51:17;12.50;99.90
22813;DHT22;11573;51.334;3.244;2023-08-31T01:53:57;12.50;99.90
22813;DHT22;11573;51.334;3.244;2023-08-31T01:56:25;12.60;99.90
22813;DHT22;11573;51.334;3.244;2023-08-31T01:58:52;12.50;99.90
22813;DHT22;11573;51.334;3.244;2023-08-31T02:01:20;12.50;99.90
22813;DHT22;11573;51.334;3.244;2023-08-31T02:03:47;12.50;99.90
22813;DHT22;11573;51.334;3.244;2023-08-31T02:06:19;12.50;99.90
22813;DHT22;11573;51.334;3.244;2023-08-31T02:08:49;12.50;99.90
22813;DHT22;11573;51.334;3.244;2023-08-31T02:11:17;12.50;99.90
22813;DHT22;11573;51.334;3.244;2023-08-31T02:13:45;12.50;99.90
22813;DHT22;11573;51.334;3.244;2023-08-31T02:16:17;12.60;99.90
22813;DHT22;11573;51.334;3.244;2023-08-31T02:18:44;12.60;99.90
22813;DHT22;11573;51.334;3.244;2023-08-31T02:21:11;12.60;99.90
22813;DHT22;11573;51.334;3.244;2023-08-31T02:23:42;12.60;99.90
22813;DHT22;11573;51.334;3.244;2023-08-31T02:26:13;12.60;99.90
22813;DHT22;11573;51.334;3.244;2023-08-31T02:28:42;12.50;99.90
22813;DHT22;11573;51.334;3.244;2023-08-31T02:31:13;12.50;99.90
22813;DHT22;11573;51.334;3.244;2023-08-31T02:33:40;12.50;99.90
22813;DHT22;11573;51.334;3.244;2023-08-31T02:36:07;12.60;99.90
22813;DHT22;11573;51.334;3.244;2023-08-31T02:38:35;12.60;99.90
22813;DHT22;11573;51.334;3.244;2023-08-31T02:41:02;12.70;99.90
22813;DHT22;11573;51.334;3.244;2023-08-31T02:43:30;12.70;99.90
22813;DHT22;11573;51.334;3.244;2023-08-31T02:46:01;12.70;99.90
22813;DHT22;11573;51.334;3.244;2023-08-31T02:48:31;12.70;99.90
22813;DHT22;11573;51.334;3.244;2023-08-31T02:51:01;12.80;99.90
22813;DHT22;11573;51.334;3.244;2023-08-31T02:53:30;12.80;99.90
22813;DHT22;11573;51.334;3.244;2023-08-31T02:56:05;12.80;99.90
22813;DHT22;11573;51.334;3.244;2023-08-31T02:58:32;12.90;99.90
22813;DHT22;11573;51.334;3.244;2023-08-31T03:01:11;13.00;99.90
22813;DHT22;11573;51.334;3.244;2023-08-31T03:03:43;13.00;99.90
22813;DHT22;11573;51.334;3.244;2023-08-31T03:06:13;13.00;99.90
22813;DHT22;11573;51.334;3.244;2023-08-31T03:08:40;13.00;99.90
22813;DHT22;11573;51.334;3.244;2023-08-31T03:11:08;13.00;99.90
22813;DHT22;11573;51.334;3.244;2023-08-31T03:13:35;13.00;99.90
22813;DHT22;11573;51.334;3.244;2023-08-31T03:16:02;13.00;99.90
22813;DHT22;11573;51.334;3.244;2023-08-31T03:18:30;13.10;99.90
22813;DHT22;11573;51.334;3.244;2023-08-31T03:20:57;13.00;99.90
22813;DHT22;11573;51.334;3.244;2023-08-31T03:23:25;13.00;99.90
22813;DHT22;11573;51.334;3.244;2023-08-31T03:25:52;13.00;99.90
22813;DHT22;11573;51.334;3.244;2023-08-31T03:28:23;13.10;99.90
22813;DHT22;11573;51.334;3.244;2023-08-31T03:30:55;13.10;99.90
22813;DHT22;11573;51.334;3.244;2023-08-31T03:33:24;13.10;99.90
22813;DHT22;11573;51.334;3.244;2023-08-31T03:35:52;13.10;99.90
22813;DHT22;11573;51.334;3.244;2023-08-31T03:38:21;13.10;99.90
22813;DHT22;11573;51.334;3.244;2023-08-31T03:40:55;13.10;99.90
22813;DHT22;11573;51.334;3.244;2023-08-31T03:43:22;13.10;99.90
22813;DHT22;11573;51.334;3.244;2023-08-31T03:45:54;13.10;99.90
22813;DHT22;11573;51.334;3.244;2023-08-31T03:48:24;13.10;99.90
22813;DHT22;11573;51.334;3.244;2023-08-31T03:50:54;13.10;99.90
22813;DHT22;11573;51.334;3.244;2023-08-31T03:53:23;13.10;99.90
22813;DHT22;11573;51.334;3.244;2023-08-31T03:55:54;13.00;99.90
22813;DHT22;11573;51.334;3.244;2023-08-31T03:58:22;13.00;99.90
22813;DHT22;11573;51.334;3.244;2023-08-31T04:00:52;13.00;99.90
22813;DHT22;11573;51.334;3.244;2023-08-31T04:03:19;12.90;99.90
22813;DHT22;11573;51.334;3.244;2023-08-31T04:05:47;12.90;99.90
22813;DHT22;11573;51.334;3.244;2023-08-31T04:08:15;12.90;99.90
22813;DHT22;11573;51.334;3.244;2023-08-31T04:10:42;12.90;99.90
22813;DHT22;11573;51.334;3.244;2023-08-31T04:13:09;12.80;99.90
22813;DHT22;11573;51.334;3.244;2023-08-31T04:15:37;12.80;99.90
22813;DHT22;11573;51.334;3.244;2023-08-31T04:18:05;12.80;99.90
22813;DHT22;11573;51.334;3.244;2023-08-31T04:20:33;12.70;99.90
22813;DHT22;11573;51.334;3.244;2023-08-31T04:23:00;12.70;99.90
22813;DHT22;11573;51.334;3.244;2023-08-31T04:25:29;12.70;99.90
22813;DHT22;11573;51.334;3.244;2023-08-31T04:27:58;12.70;99.90
22813;DHT22;11573;51.334;3.244;2023-08-31T04:30:25;12.70;99.90
22813;DHT22;11573;51.334;3.244;2023-08-31T04:32:53;12.70;99.90
22813;DHT22;11573;51.334;3.244;2023-08-31T04:35:20;12.60;99.90
22813;DHT22;11573;51.334;3.244;2023-08-31T04:37:48;12.60;99.90
22813;DHT22;11573;51.334;3.244;2023-08-31T04:40:15;12.60;99.90
22813;DHT22;11573;51.334;3.244;2023-08-31T04:42:43;12.60;99.90
22813;DHT22;11573;51.334;3.244;2023-08-31T04:45:10;12.60;99.90
22813;DHT22;11573;51.334;3.244;2023-08-31T04:47:38;12.60;99.90
22813;DHT22;11573;51.334;3.244;2023-08-31T04:50:06;12.50;99.90
22813;DHT22;11573;51.334;3.244;2023-08-31T04:52:34;12.50;99.90
22813;DHT22;11573;51.334;3.244;2023-08-31T04:55:02;12.50;99.90
22813;DHT22;11573;51.334;3.244;2023-08-31T04:57:31;12.50;99.90
22813;DHT22;11573;51.334;3.244;2023-08-31T05:00:00;12.50;99.90
22813;DHT22;11573;51.334;3.244;2023-08-31T05:02:28;12.50;99.90
22813;DHT22;11573;51.334;3.244;2023-08-31T05:04:55;12.50;99.90
22813;DHT22;11573;51.334;3.244;2023-08-31T05:07:22;12.50;99.90
22813;DHT22;11573;51.334;3.244;2023-08-31T05:09:49;12.60;99.90
22813;DHT22;11573;51.334;3.244;2023-08-31T05:12:17;12.60;99.90
22813;DHT22;11573;51.334;3.244;2023-08-31T05:14:44;12.60;99.90
22813;DHT22;11573;51.334;3.244;2023-08-31T05:17:11;12.60;99.90
22813;DHT22;11573;51.334;3.244;2023-08-31T05:19:38;12.60;99.90
22813;DHT22;11573;51.334;3.244;2023-08-31T05:22:05;12.60;99.90
22813;DHT22;11573;51.334;3.244;2023-08-31T05:24:32;12.60;99.90
22813;DHT22;11573;51.334;3.244;2023-08-31T05:27:00;12.60;99.90
22813;DHT22;11573;51.334;3.244;2023-08-31T05:29:27;12.70;99.90
22813;DHT22;11573;51.334;3.244;2023-08-31T05:31:54;12.70;99.90
22813;DHT22;11573;51.334;3.244;2023-08-31T05:34:24;12.80;99.90
22813;DHT22;11573;51.334;3.244;2023-08-31T05:36:51;12.80;99.90
22813;DHT22;11573;51.334;3.244;2023-08-31T05:39:18;12.80;99.90
22813;DHT22;11573;51.334;3.244;2023-08-31T05:41:46;12.90;99.90
22813;DHT22;11573;51.334;3.244;2023-08-31T05:44:14;13.00;99.90
22813;DHT22;11573;51.334;3.244;2023-08-31T05:46:41;12.90;99.90
22813;DHT22;11573;51.334;3.244;2023-08-31T05:49:08;13.00;99.90
22813;DHT22;11573;51.334;3.244;2023-08-31T05:51:36;13.10;99.90
22813;DHT22;11573;51.334;3.244;2023-08-31T05:54:06;13.20;99.90
22813;DHT22;11573;51.334;3.244;2023-08-31T05:56:39;13.30;99.90
22813;DHT22;11573;51.334;3.244;2023-08-31T05:59:07;13.40;99.90
22813;DHT22;11573;51.334;3.244;2023-08-31T06:01:37;13.40;99.90
22813;DHT22;11573;51.334;3.244;2023-08-31T06:04:05;13.50;99.90
22813;DHT22;11573;51.334;3.244;2023-08-31T06:06:33;13.60;99.90
22813;DHT22;11573;51.334;3.244;2023-08-31T06:09:02;13.60;99.90
22813;DHT22;11573;51.334;3.244;2023-08-31T06:11:29;13.70;99.90
22813;DHT22;11573;51.334;3.244;2023-08-31T06:13:56;13.80;99.90
22813;DHT22;11573;51.334;3.244;2023-08-31T06:16:23;13.90;99.90
22813;DHT22;11573;51.334;3.244;2023-08-31T06:18:52;14.00;99.90
22813;DHT22;11573;51.334;3.244;2023-08-31T06:21:19;14.10;99.90
22813;DHT22;11573;51.334;3.244;2023-08-31T06:23:46;14.20;99.90
22813;DHT22;11573;51.334;3.244;2023-08-31T06:26:13;14.30;99.90
22813;DHT22;11573;51.334;3.244;2023-08-31T06:28:41;14.40;99.90
22813;DHT22;11573;51.334;3.244;2023-08-31T06:31:08;14.30;99.90
22813;DHT22;11573;51.334;3.244;2023-08-31T06:33:36;14.20;99.90
22813;DHT22;11573;51.334;3.244;2023-08-31T06:36:03;14.30;99.90
22813;DHT22;11573;51.334;3.244;2023-08-31T06:38:30;14.50;99.90
22813;DHT22;11573;51.334;3.244;2023-08-31T06:40:57;14.70;99.90
22813;DHT22;11573;51.334;3.244;2023-08-31T06:43:26;14.90;99.90
22813;DHT22;11573;51.334;3.244;2023-08-31T06:45:54;15.00;99.90
22813;DHT22;11573;51.334;3.244;2023-08-31T06:48:27;15.00;99.90
22813;DHT22;11573;51.334;3.244;2023-08-31T06:50:55;15.10;99.90
22813;DHT22;11573;51.334;3.244;2023-08-31T06:53:23;15.20;99.90
22813;DHT22;11573;51.334;3.244;2023-08-31T06:55:50;15.20;99.90
22813;DHT22;11573;51.334;3.244;2023-08-31T06:58:17;15.40;99.90
22813;DHT22;11573;51.334;3.244;2023-08-31T07:00:44;15.40;99.90
22813;DHT22;11573;51.334;3.244;2023-08-31T07:03:11;15.40;99.90
22813;DHT22;11573;51.334;3.244;2023-08-31T07:05:42;15.40;99.90
22813;DHT22;11573;51.334;3.244;2023-08-31T07:08:10;15.40;99.90
22813;DHT22;11573;51.334;3.244;2023-08-31T07:10:38;15.50;99.90
22813;DHT22;11573;51.334;3.244;2023-08-31T07:13:06;15.70;99.90
22813;DHT22;11573;51.334;3.244;2023-08-31T07:15:34;15.90;99.90
22813;DHT22;11573;51.334;3.244;2023-08-31T07:18:01;15.90;99.90
22813;DHT22;11573;51.334;3.244;2023-08-31T07:20:33;16.00;99.90
22813;DHT22;11573;51.334;3.244;2023-08-31T07:23:00;16.00;99.90
22813;DHT22;11573;51.334;3.244;2023-08-31T07:25:27;16.20;99.90
22813;DHT22;11573;51.334;3.244;2023-08-31T07:27:55;16.40;99.90
22813;DHT22;11573;51.334;3.244;2023-08-31T07:30:22;16.60;99.90
22813;DHT22;11573;51.334;3.244;2023-08-31T07:32:49;16.70;99.90
22813;DHT22;11573;51.334;3.244;2023-08-31T07:35:16;16.80;99.90
22813;DHT22;11573;51.334;3.244;2023-08-31T07:37:46;16.80;99.90
22813;DHT22;11573;51.334;3.244;2023-08-31T07:40:13;16.60;99.90
22813;DHT22;11573;51.334;3.244;2023-08-31T07:42:41;16.60;99.90
22813;DHT22;11573;51.334;3.244;2023-08-31T07:45:10;16.60;99.90
22813;DHT22;11573;51.334;3.244;2023-08-31T07:47:37;16.60;99.90
22813;DHT22;11573;51.334;3.244;2023-08-31T07:50:04;16.70;99.90
22813;DHT22;11573;51.334;3.244;2023-08-31T07:52:33;16.60;99.90
22813;DHT22;11573;51.334;3.244;2023-08-31T07:55:01;16.60;99.90
22813;DHT22;11573;51.334;3.244;2023-08-31T07:57:28;16.70;99.90
22813;DHT22;11573;51.334;3.244;2023-08-31T07:59:55;16.80;99.90
22813;DHT22;11573;51.334;3.244;2023-08-31T08:02:23;16.90;99.90
22813;DHT22;11573;51.334;3.244;2023-08-31T08:04:51;17.10;99.90
22813;DHT22;11573;51.334;3.244;2023-08-31T08:07:20;17.10;99.90
22813;DHT22;11573;51.334;3.244;2023-08-31T08:09:47;17.20;99.90
22813;DHT22;11573;51.334;3.244;2023-08-31T08:12:18;17.30;99.90
22813;DHT22;11573;51.334;3.244;2023-08-31T08:14:46;17.60;99.90
22813;DHT22;11573;51.334;3.244;2023-08-31T08:17:13;17.60;99.90
22813;DHT22;11573;51.334;3.244;2023-08-31T08:19:40;17.70;99.90
22813;DHT22;11573;51.334;3.244;2023-08-31T08:22:07;17.70;99.90
22813;DHT22;11573;51.334;3.244;2023-08-31T08:24:35;17.70;99.90
22813;DHT22;11573;51.334;3.244;2023-08-31T08:27:02;17.90;99.90
22813;DHT22;11573;51.334;3.244;2023-08-31T08:29:29;18.10;99.90
22813;DHT22;11573;51.334;3.244;2023-08-31T08:31:56;18.50;99.90
22813;DHT22;11573;51.334;3.244;2023-08-31T08:34:26;18.70;99.90
22813;DHT22;11573;51.334;3.244;2023-08-31T08:36:54;18.90;99.90
22813;DHT22;11573;51.334;3.244;2023-08-31T08:39:21;18.70;99.90
22813;DHT22;11573;51.334;3.244;2023-08-31T08:41:48;18.60;99.90
22813;DHT22;11573;51.334;3.244;2023-08-31T08:44:16;18.70;99.90
22813;DHT22;11573;51.334;3.244;2023-08-31T08:46:46;18.60;99.90
22813;DHT22;11573;51.334;3.244;2023-08-31T08:49:15;18.40;99.90
22813;DHT22;11573;51.334;3.244;2023-08-31T08:51:43;18.40;99.90
22813;DHT22;11573;51.334;3.244;2023-08-31T08:54:13;18.40;99.90
22813;DHT22;11573;51.334;3.244;2023-08-31T08:56:41;18.50;99.90
22813;DHT22;11573;51.334;3.244;2023-08-31T08:59:10;18.40;99.90
22813;DHT22;11573;51.334;3.244;2023-08-31T09:01:40;18.60;99.90
22813;DHT22;11573;51.334;3.244;2023-08-31T09:04:10;18.60;99.90
22813;DHT22;11573;51.334;3.244;2023-08-31T09:06:38;18.50;99.90
22813;DHT22;11573;51.334;3.244;2023-08-31T09:09:09;18.60;99.90
22813;DHT22;11573;51.334;3.244;2023-08-31T09:11:36;18.60;99.90
22813;DHT22;11573;51.334;3.244;2023-08-31T09:14:19;18.50;99.90
22813;DHT22;11573;51.334;3.244;2023-08-31T09:16:48;18.40;99.90
22813;DHT22;11573;51.334;3.244;2023-08-31T09:19:23;18.20;99.90
22813;DHT22;11573;51.334;3.244;2023-08-31T09:21:52;18.00;99.90
22813;DHT22;11573;51.334;3.244;2023-08-31T09:24:19;18.00;99.90
22813;DHT22;11573;51.334;3.244;2023-08-31T09:26:58;18.10;99.90
22813;DHT22;11573;51.334;3.244;2023-08-31T09:29:25;18.40;99.90
22813;DHT22;11573;51.334;3.244;2023-08-31T09:31:53;18.50;99.90
22813;DHT22;11573;51.334;3.244;2023-08-31T09:34:32;18.70;99.90
22813;DHT22;11573;51.334;3.244;2023-08-31T09:37:05;18.90;99.90
22813;DHT22;11573;51.334;3.244;2023-08-31T09:39:39;19.00;99.90
22813;DHT22;11573;51.334;3.244;2023-08-31T09:42:06;19.20;99.90
22813;DHT22;11573;51.334;3.244;2023-08-31T09:44:33;19.20;99.90
22813;DHT22;11573;51.334;3.244;2023-08-31T09:47:00;19.30;99.90
22813;DHT22;11573;51.334;3.244;2023-08-31T09:49:29;19.40;99.90
22813;DHT22;11573;51.334;3.244;2023-08-31T09:52:01;19.60;99.90
22813;DHT22;11573;51.334;3.244;2023-08-31T09:54:30;20.00;99.90
22813;DHT22;11573;51.334;3.244;2023-08-31T09:56:59;20.30;99.90
22813;DHT22;11573;51.334;3.244;2023-08-31T09:59:28;20.30;99.90
22813;DHT22;11573;51.334;3.244;2023-08-31T10:01:56;20.30;99.90
22813;DHT22;11573;51.334;3.244;2023-08-31T10:04:24;20.10;99.90
22813;DHT22;11573;51.334;3.244;2023-08-31T10:06:51;20.20;99.90
22813;DHT22;11573;51.334;3.244;2023-08-31T10:09:19;20.30;99.90
22813;DHT22;11573;51.334;3.244;2023-08-31T10:11:48;20.50;99.90
22813;DHT22;11573;51.334;3.244;2023-08-31T10:14:16;20.70;99.90
22813;DHT22;11573;51.334;3.244;2023-08-31T10:16:44;21.00;99.90
22813;DHT22;11573;51.334;3.244;2023-08-31T10:19:13;20.90;99.90
22813;DHT22;11573;51.334;3.244;2023-08-31T10:21:42;21.00;99.90
22813;DHT22;11573;51.334;3.244;2023-08-31T10:24:11;20.70;99.90
22813;DHT22;11573;51.334;3.244;2023-08-31T10:26:38;20.90;99.90
22813;DHT22;11573;51.334;3.244;2023-08-31T10:29:05;20.90;99.90
22813;DHT22;11573;51.334;3.244;2023-08-31T10:31:34;20.80;99.90
22813;DHT22;11573;51.334;3.244;2023-08-31T10:34:03;20.90;99.90
22813;DHT22;11573;51.334;3.244;2023-08-31T10:36:41;20.70;99.90
22813;DHT22;11573;51.334;3.244;2023-08-31T10:39:16;20.80;99.90
22813;DHT22;11573;51.334;3.244;2023-08-31T10:41:55;20.80;99.90
22813;DHT22;11573;51.334;3.244;2023-08-31T10:44:24;20.70;99.90
22813;DHT22;11573;51.334;3.244;2023-08-31T10:46:53;20.70;99.90
22813;DHT22;11573;51.334;3.244;2023-08-31T10:49:23;20.70;99.90
22813;DHT22;11573;51.334;3.244;2023-08-31T10:54:25;20.90;99.90
22813;DHT22;11573;51.334;3.244;2023-08-31T11:02:10;21.30;99.90
22813;DHT22;11573;51.334;3.244;2023-08-31T11:07:49;21.70;99.90
22813;DHT22;11573;51.334;3.244;2023-08-31T11:10:24;21.60;99.90
22813;DHT22;11573;51.334;3.244;2023-08-31T11:12:55;21.30;99.90
22813;DHT22;11573;51.334;3.244;2023-08-31T11:15:26;21.10;99.90
22813;DHT22;11573;51.334;3.244;2023-08-31T11:17:56;20.90;99.90
22813;DHT22;11573;51.334;3.244;2023-08-31T11:20:24;21.10;99.90
22813;DHT22;11573;51.334;3.244;2023-08-31T11:22:55;21.10;99.90
22813;DHT22;11573;51.334;3.244;2023-08-31T11:25:23;21.10;99.90
22813;DHT22;11573;51.334;3.244;2023-08-31T11:27:57;20.90;99.90
22813;DHT22;11573;51.334;3.244;2023-08-31T11:30:26;20.70;99.90
22813;DHT22;11573;51.334;3.244;2023-08-31T11:32:55;20.30;99.90
22813;DHT22;11573;51.334;3.244;2023-08-31T11:35:23;20.40;99.90
22813;DHT22;11573;51.334;3.244;2023-08-31T11:37:56;20.50;99.90
22813;DHT22;11573;51.334;3.244;2023-08-31T11:40:27;20.70;99.90
22813;DHT22;11573;51.334;3.244;2023-08-31T11:42:54;21.10;99.90
22813;DHT22;11573;51.334;3.244;2023-08-31T11:45:23;21.30;99.90
22813;DHT22;11573;51.334;3.244;2023-08-31T11:47:51;21.00;99.90
22813;DHT22;11573;51.334;3.244;2023-08-31T11:50:19;20.80;99.90
22813;DHT22;11573;51.334;3.244;2023-08-31T11:52:47;20.80;99.90
22813;DHT22;11573;51.334;3.244;2023-08-31T11:55:16;21.00;99.90
22813;DHT22;11573;51.334;3.244;2023-08-31T11:57:50;21.10;99.90
22813;DHT22;11573;51.334;3.244;2023-08-31T12:00:20;21.20;99.90
22813;DHT22;11573;51.334;3.244;2023-08-31T12:02:59;21.20;99.90
22813;DHT22;11573;51.334;3.244;2023-08-31T12:05:28;21.20;99.90
22813;DHT22;11573;51.334;3.244;2023-08-31T12:07:55;21.00;99.90
22813;DHT22;11573;51.334;3.244;2023-08-31T12:10:25;20.80;99.90
22813;DHT22;11573;51.334;3.244;2023-08-31T12:12:52;20.80;99.90
22813;DHT22;11573;51.334;3.244;2023-08-31T12:15:23;21.00;99.90
22813;DHT22;11573;51.334;3.244;2023-08-31T12:17:50;21.30;99.90
22813;DHT22;11573;51.334;3.244;2023-08-31T12:20:25;21.50;99.90
22813;DHT22;11573;51.334;3.244;2023-08-31T12:22:55;21.30;99.90
22813;DHT22;11573;51.334;3.244;2023-08-31T12:25:23;21.10;99.90
22813;DHT22;11573;51.334;3.244;2023-08-31T12:27:52;21.00;99.90
22813;DHT22;11573;51.334;3.244;2023-08-31T12:30:21;20.70;99.90
22813;DHT22;11573;51.334;3.244;2023-08-31T12:32:50;20.30;99.90
22813;DHT22;11573;51.334;3.244;2023-08-31T12:35:18;20.10;99.90
22813;DHT22;11573;51.334;3.244;2023-08-31T12:37:45;20.00;99.90
22813;DHT22;11573;51.334;3.244;2023-08-31T12:40:12;20.00;99.90
22813;DHT22;11573;51.334;3.244;2023-08-31T12:42:39;19.60;99.90
22813;DHT22;11573;51.334;3.244;2023-08-31T12:45:06;19.40;99.90
22813;DHT22;11573;51.334;3.244;2023-08-31T12:47:34;19.50;99.90
22813;DHT22;11573;51.334;3.244;2023-08-31T12:50:02;19.70;99.90
22813;DHT22;11573;51.334;3.244;2023-08-31T12:52:31;19.80;99.90
22813;DHT22;11573;51.334;3.244;2023-08-31T12:54:59;20.30;99.90
22813;DHT22;11573;51.334;3.244;2023-08-31T12:57:27;20.30;99.90
22813;DHT22;11573;51.334;3.244;2023-08-31T12:59:55;20.30;99.90
22813;DHT22;11573;51.334;3.244;2023-08-31T13:02:22;20.30;99.90
22813;DHT22;11573;51.334;3.244;2023-08-31T13:04:49;20.20;99.90
22813;DHT22;11573;51.334;3.244;2023-08-31T13:07:16;20.20;99.90
22813;DHT22;11573;51.334;3.244;2023-08-31T13:09:45;20.30;99.90
22813;DHT22;11573;51.334;3.244;2023-08-31T13:12:14;20.20;99.90
22813;DHT22;11573;51.334;3.244;2023-08-31T13:14:44;20.00;99.90
22813;DHT22;11573;51.334;3.244;2023-08-31T13:17:13;20.10;99.90
22813;DHT22;11573;51.334;3.244;2023-08-31T13:19:40;20.40;99.90
22813;DHT22;11573;51.334;3.244;2023-08-31T13:22:07;20.80;99.90
22813;DHT22;11573;51.334;3.244;2023-08-31T13:24:36;21.00;99.90
22813;DHT22;11573;51.334;3.244;2023-08-31T13:27:05;21.20;99.90
22813;DHT22;11573;51.334;3.244;2023-08-31T13:29:33;21.60;99.90
22813;DHT22;11573;51.334;3.244;2023-08-31T13:32:00;22.30;99.90
22813;DHT22;11573;51.334;3.244;2023-08-31T13:34:27;22.70;99.90
22813;DHT22;11573;51.334;3.244;2023-08-31T13:36:55;23.20;99.90
22813;DHT22;11573;51.334;3.244;2023-08-31T13:39:22;23.70;99.90
22813;DHT22;11573;51.334;3.244;2023-08-31T13:41:53;24.00;99.90
22813;DHT22;11573;51.334;3.244;2023-08-31T13:44:21;23.90;99.90
22813;DHT22;11573;51.334;3.244;2023-08-31T13:46:48;23.30;99.90
22813;DHT22;11573;51.334;3.244;2023-08-31T13:49:16;23.40;99.90
22813;DHT22;11573;51.334;3.244;2023-08-31T13:51:43;23.70;99.90
22813;DHT22;11573;51.334;3.244;2023-08-31T13:54:12;23.90;99.90
22813;DHT22;11573;51.334;3.244;2023-08-31T13:56:39;24.00;99.90
22813;DHT22;11573;51.334;3.244;2023-08-31T13:59:06;23.80;99.90
22813;DHT22;11573;51.334;3.244;2023-08-31T14:01:33;23.40;99.90
22813;DHT22;11573;51.334;3.244;2023-08-31T14:04:01;23.10;99.90
22813;DHT22;11573;51.334;3.244;2023-08-31T14:06:30;22.40;99.90
22813;DHT22;11573;51.334;3.244;2023-08-31T14:08:58;21.40;99.90
22813;DHT22;11573;51.334;3.244;2023-08-31T14:11:25;20.50;99.90
22813;DHT22;11573;51.334;3.244;2023-08-31T14:14:06;20.20;99.90
22813;DHT22;11573;51.334;3.244;2023-08-31T14:16:37;20.30;99.90
22813;DHT22;11573;51.334;3.244;2023-08-31T14:19:05;20.20;99.90
22813;DHT22;11573;51.334;3.244;2023-08-31T14:21:33;20.00;99.90
22813;DHT22;11573;51.334;3.244;2023-08-31T14:24:01;20.10;99.90
22813;DHT22;11573;51.334;3.244;2023-08-31T14:26:29;20.10;99.90
22813;DHT22;11573;51.334;3.244;2023-08-31T14:28:59;20.30;99.90
22813;DHT22;11573;51.334;3.244;2023-08-31T14:31:26;20.40;99.90
22813;DHT22;11573;51.334;3.244;2023-08-31T14:33:55;20.50;99.90
22813;DHT22;11573;51.334;3.244;2023-08-31T14:36:25;20.20;99.90
22813;DHT22;11573;51.334;3.244;2023-08-31T14:38:54;20.40;99.90
22813;DHT22;11573;51.334;3.244;2023-08-31T14:41:21;20.60;99.90
22813;DHT22;11573;51.334;3.244;2023-08-31T14:43:49;20.60;99.90
22813;DHT22;11573;51.334;3.244;2023-08-31T14:46:17;20.80;99.90
22813;DHT22;11573;51.334;3.244;2023-08-31T14:48:44;21.30;99.90
22813;DHT22;11573;51.334;3.244;2023-08-31T14:51:13;21.20;99.90
22813;DHT22;11573;51.334;3.244;2023-08-31T14:53:41;21.00;99.90
22813;DHT22;11573;51.334;3.244;2023-08-31T14:56:10;21.10;99.90
22813;DHT22;11573;51.334;3.244;2023-08-31T14:58:37;21.10;99.90
22813;DHT22;11573;51.334;3.244;2023-08-31T15:01:04;21.00;99.90
22813;DHT22;11573;51.334;3.244;2023-08-31T15:03:33;20.80;99.90
22813;DHT22;11573;51.334;3.244;2023-08-31T15:06:00;20.50;99.90
22813;DHT22;11573;51.334;3.244;2023-08-31T15:08:39;20.40;99.90
22813;DHT22;11573;51.334;3.244;2023-08-31T15:11:07;20.10;99.90
22813;DHT22;11573;51.334;3.244;2023-08-31T15:13:35;20.10;99.90
22813;DHT22;11573;51.334;3.244;2023-08-31T15:16:03;19.90;99.90
22813;DHT22;11573;51.334;3.244;2023-08-31T15:18:31;19.70;99.90
22813;DHT22;11573;51.334;3.244;2023-08-31T15:20:58;19.60;99.90
22813;DHT22;11573;51.334;3.244;2023-08-31T15:23:25;19.60;99.90
22813;DHT22;11573;51.334;3.244;2023-08-31T15:25:52;19.70;99.90
22813;DHT22;11573;51.334;3.244;2023-08-31T15:28:25;19.40;99.90
22813;DHT22;11573;51.334;3.244;2023-08-31T15:30:52;19.60;99.90
22813;DHT22;11573;51.334;3.244;2023-08-31T15:33:19;19.50;99.90
22813;DHT22;11573;51.334;3.244;2023-08-31T15:35:47;19.40;99.90
22813;DHT22;11573;51.334;3.244;2023-08-31T15:38:18;19.60;99.90
22813;DHT22;11573;51.334;3.244;2023-08-31T15:40:47;19.70;99.90
22813;DHT22;11573;51.334;3.244;2023-08-31T15:43:17;19.60;99.90
22813;DHT22;11573;51.334;3.244;2023-08-31T15:45:47;19.70;99.90
22813;DHT22;11573;51.334;3.244;2023-08-31T15:48:15;19.70;99.90
22813;DHT22;11573;51.334;3.244;2023-08-31T15:50:42;19.70;99.90
22813;DHT22;11573;51.334;3.244;2023-08-31T15:53:12;19.60;99.90
22813;DHT22;11573;51.334;3.244;2023-08-31T15:55:39;19.40;99.90
22813;DHT22;11573;51.334;3.244;2023-08-31T15:58:07;19.40;99.90
22813;DHT22;11573;51.334;3.244;2023-08-31T16:00:34;19.50;99.90
22813;DHT22;11573;51.334;3.244;2023-08-31T16:03:05;19.50;99.90